sensor_id;sensor_type;location;lat;lon;timestamp;pressure;altitude;pressure_sealevel;temperature;humidity
57094;BME280;42970;50.996;3.706;2023-04-09T00:01:37;76057.66;;;-146.65;80.36
57094;BME280;42970;50.996;3.706;2023-04-09T00:04:02;76049.59;;;-146.65;80.60
57094;BME280;42970;50.996;3.706;2023-04-09T00:06:27;76049.59;;;-146.65;80.11
57094;BME280;42970;50.996;3.706;2023-04-09T00:08:53;76055.66;;;-146.65;80.08
57094;BME280;42970;50.996;3.706;2023-04-09T00:11:18;76045.56;;;-146.65;79.86
57094;BME280;42970;50.996;3.706;2023-04-09T00:13:44;76049.59;;;-146.65;79.66
57094;BME280;42970;50.996;3.706;2023-04-09T00:16:09;76049.59;;;-146.65;79.46
57094;BME280;42970;50.996;3.706;2023-04-09T00:18:34;76039.50;;;-146.65;79.09
57094;BME280;42970;50.996;3.706;2023-04-09T00:21:00;76059.69;;;-146.65;79.60
57094;BME280;42970;50.996;3.706;2023-04-09T00:23:25;76053.63;;;-146.65;80.13
57094;BME280;42970;50.996;3.706;2023-04-09T00:25:50;76047.59;;;-146.65;80.46
57094;BME280;42970;50.996;3.706;2023-04-09T00:28:16;76037.50;;;-146.65;81.38
57094;BME280;42970;50.996;3.706;2023-04-09T00:30:41;76045.56;;;-146.65;82.80
57094;BME280;42970;50.996;3.706;2023-04-09T00:33:06;76031.44;;;-146.65;82.85
57094;BME280;42970;50.996;3.706;2023-04-09T00:35:32;76005.22;;;-146.65;83.03
57094;BME280;42970;50.996;3.706;2023-04-09T00:37:57;76025.41;;;-146.65;84.64
57094;BME280;42970;50.996;3.706;2023-04-09T00:40:22;76013.28;;;-146.65;85.75
57094;BME280;42970;50.996;3.706;2023-04-09T00:42:48;76001.19;;;-146.65;84.69
57094;BME280;42970;50.996;3.706;2023-04-09T00:45:13;75995.13;;;-146.65;84.22
57094;BME280;42970;50.996;3.706;2023-04-09T00:47:38;75981.00;;;-146.65;82.52
57094;BME280;42970;50.996;3.706;2023-04-09T00:50:04;75995.13;;;-146.65;81.98
57094;BME280;42970;50.996;3.706;2023-04-09T00:52:29;76017.31;;;-146.65;81.61
57094;BME280;42970;50.996;3.706;2023-04-09T00:54:55;76041.53;;;-146.65;81.33
57094;BME280;42970;50.996;3.706;2023-04-09T00:57:20;76061.72;;;-146.65;81.18
57094;BME280;42970;50.996;3.706;2023-04-09T00:59:46;76083.91;;;-146.65;81.28
57094;BME280;42970;50.996;3.706;2023-04-09T01:02:11;76085.91;;;-146.65;81.11
57094;BME280;42970;50.996;3.706;2023-04-09T01:04:37;76100.03;;;-146.65;80.88
57094;BME280;42970;50.996;3.706;2023-04-09T01:09:32;76096.00;;;-146.65;80.59
57094;BME280;42970;50.996;3.706;2023-04-09T01:12:14;76104.06;;;-146.65;80.66
57094;BME280;42970;50.996;3.706;2023-04-09T01:15:24;76126.25;;;-146.65;80.46
57094;BME280;42970;50.996;3.706;2023-04-09T01:20:03;76122.22;;;-146.65;80.67
57094;BME280;42970;50.996;3.706;2023-04-09T01:22:47;76100.03;;;-146.65;81.44
57094;BME280;42970;50.996;3.706;2023-04-09T01:25:21;76093.97;;;-146.65;81.43
57094;BME280;42970;50.996;3.706;2023-04-09T01:27:54;76091.97;;;-146.65;81.77
57094;BME280;42970;50.996;3.706;2023-04-09T01:30:22;76089.94;;;-146.65;81.73
57094;BME280;42970;50.996;3.706;2023-04-09T01:32:48;76083.91;;;-146.65;81.28
57094;BME280;42970;50.996;3.706;2023-04-09T01:35:14;76106.09;;;-146.65;80.82
57094;BME280;42970;50.996;3.706;2023-04-09T01:37:40;76120.22;;;-146.65;80.13
57094;BME280;42970;50.996;3.706;2023-04-09T01:40:06;76138.38;;;-146.65;80.15
57094;BME280;42970;50.996;3.706;2023-04-09T01:42:31;76138.38;;;-146.65;80.27
57094;BME280;42970;50.996;3.706;2023-04-09T01:44:57;76138.38;;;-146.65;80.34
57094;BME280;42970;50.996;3.706;2023-04-09T01:47:23;76136.34;;;-146.65;80.27
57094;BME280;42970;50.996;3.706;2023-04-09T01:49:49;76150.47;;;-146.65;80.11
57094;BME280;42970;50.996;3.706;2023-04-09T01:52:15;76158.53;;;-146.65;79.99
57094;BME280;42970;50.996;3.706;2023-04-09T01:54:41;76156.53;;;-146.65;79.99
57094;BME280;42970;50.996;3.706;2023-04-09T01:57:06;76152.50;;;-146.65;79.87
57094;BME280;42970;50.996;3.706;2023-04-09T01:59:32;76146.44;;;-146.65;79.80
57094;BME280;42970;50.996;3.706;2023-04-09T02:01:58;76154.50;;;-146.65;80.05
57094;BME280;42970;50.996;3.706;2023-04-09T02:07:14;76174.69;;;-146.65;80.03
57094;BME280;42970;50.996;3.706;2023-04-09T02:09:36;76184.75;;;-146.65;80.08
57094;BME280;42970;50.996;3.706;2023-04-09T02:12:04;76188.78;;;-146.65;79.86
57094;BME280;42970;50.996;3.706;2023-04-09T02:14:33;76196.88;;;-146.65;80.44
57094;BME280;42970;50.996;3.706;2023-04-09T02:16:59;76208.97;;;-146.65;80.57
57094;BME280;42970;50.996;3.706;2023-04-09T02:19:36;76182.75;;;-146.65;80.67
57094;BME280;42970;50.996;3.706;2023-04-09T02:22:03;76170.66;;;-146.65;80.93
57094;BME280;42970;50.996;3.706;2023-04-09T02:24:28;76142.41;;;-146.65;82.30
57094;BME280;42970;50.996;3.706;2023-04-09T02:26:53;76144.41;;;-146.65;81.36
57094;BME280;42970;50.996;3.706;2023-04-09T02:29:19;76142.41;;;-146.65;84.59
57094;BME280;42970;50.996;3.706;2023-04-09T02:31:45;76116.19;;;-146.65;84.81
57094;BME280;42970;50.996;3.706;2023-04-09T02:34:10;76112.13;;;-146.65;86.79
57094;BME280;42970;50.996;3.706;2023-04-09T02:36:35;76075.81;;;-146.65;86.23
57094;BME280;42970;50.996;3.706;2023-04-09T02:39:01;76049.59;;;-146.65;85.25
57094;BME280;42970;50.996;3.706;2023-04-09T02:41:26;76043.56;;;-146.65;84.57
57094;BME280;42970;50.996;3.706;2023-04-09T02:43:51;76059.69;;;-146.65;83.61
57094;BME280;42970;50.996;3.706;2023-04-09T02:46:17;76067.75;;;-146.65;82.78
57094;BME280;42970;50.996;3.706;2023-04-09T02:48:43;76089.94;;;-146.65;83.13
57094;BME280;42970;50.996;3.706;2023-04-09T02:51:08;76098.03;;;-146.65;86.22
57094;BME280;42970;50.996;3.706;2023-04-09T02:53:33;76057.66;;;-146.65;85.31
57094;BME280;42970;50.996;3.706;2023-04-09T02:55:59;76061.72;;;-146.65;85.16
57094;BME280;42970;50.996;3.706;2023-04-09T02:58:24;76053.63;;;-146.65;85.40
57094;BME280;42970;50.996;3.706;2023-04-09T03:00:49;76033.47;;;-146.65;85.19
57094;BME280;42970;50.996;3.706;2023-04-09T03:03:15;76031.44;;;-146.65;85.67
57094;BME280;42970;50.996;3.706;2023-04-09T03:05:40;76021.34;;;-146.65;84.96
57094;BME280;42970;50.996;3.706;2023-04-09T03:08:06;76017.31;;;-146.65;85.21
57094;BME280;42970;50.996;3.706;2023-04-09T03:10:31;76013.28;;;-146.65;84.81
57094;BME280;42970;50.996;3.706;2023-04-09T03:12:56;76011.28;;;-146.65;84.78
57094;BME280;42970;50.996;3.706;2023-04-09T03:15:22;75999.16;;;-146.65;84.44
57094;BME280;42970;50.996;3.706;2023-04-09T03:17:47;76013.28;;;-146.65;83.84
57094;BME280;42970;50.996;3.706;2023-04-09T03:20:12;76035.47;;;-146.65;84.42
57094;BME280;42970;50.996;3.706;2023-04-09T03:22:38;76005.22;;;-146.65;84.75
57094;BME280;42970;50.996;3.706;2023-04-09T03:25:03;76013.28;;;-146.65;84.83
57094;BME280;42970;50.996;3.706;2023-04-09T03:27:31;76013.28;;;-146.65;84.42
57094;BME280;42970;50.996;3.706;2023-04-09T03:29:56;76011.28;;;-146.65;84.14
57094;BME280;42970;50.996;3.706;2023-04-09T03:32:21;76019.34;;;-146.65;84.40
57094;BME280;42970;50.996;3.706;2023-04-09T03:34:46;76031.44;;;-146.65;84.87
57094;BME280;42970;50.996;3.706;2023-04-09T03:37:12;76009.25;;;-146.65;84.31
57094;BME280;42970;50.996;3.706;2023-04-09T03:39:37;76013.28;;;-146.65;83.22
57094;BME280;42970;50.996;3.706;2023-04-09T03:42:02;76015.31;;;-146.65;82.97
57094;BME280;42970;50.996;3.706;2023-04-09T03:44:28;76029.44;;;-146.65;82.77
57094;BME280;42970;50.996;3.706;2023-04-09T03:46:53;76029.44;;;-146.65;81.77
57094;BME280;42970;50.996;3.706;2023-04-09T03:49:18;76061.72;;;-146.65;81.52
57094;BME280;42970;50.996;3.706;2023-04-09T03:51:43;76067.75;;;-146.65;81.34
57094;BME280;42970;50.996;3.706;2023-04-09T03:54:09;76063.72;;;-146.65;81.64
57094;BME280;42970;50.996;3.706;2023-04-09T03:56:34;76081.88;;;-146.65;81.48
57094;BME280;42970;50.996;3.706;2023-04-09T03:59:00;76081.88;;;-146.65;81.32
57094;BME280;42970;50.996;3.706;2023-04-09T04:01:25;76089.94;;;-146.65;81.25
57094;BME280;42970;50.996;3.706;2023-04-09T04:03:50;76077.84;;;-146.65;81.32
57094;BME280;42970;50.996;3.706;2023-04-09T04:06:16;76089.94;;;-146.65;81.97
57094;BME280;42970;50.996;3.706;2023-04-09T04:08:41;76083.91;;;-146.65;82.05
57094;BME280;42970;50.996;3.706;2023-04-09T04:11:06;76077.84;;;-146.65;81.88
57094;BME280;42970;50.996;3.706;2023-04-09T04:13:32;76073.81;;;-146.65;82.13
57094;BME280;42970;50.996;3.706;2023-04-09T04:15:57;76077.84;;;-146.65;81.94
57094;BME280;42970;50.996;3.706;2023-04-09T04:18:22;76079.88;;;-146.65;81.94
57094;BME280;42970;50.996;3.706;2023-04-09T04:20:48;76093.97;;;-146.65;81.39
57094;BME280;42970;50.996;3.706;2023-04-09T04:23:13;76098.03;;;-146.65;81.30
57094;BME280;42970;50.996;3.706;2023-04-09T04:25:42;76112.13;;;-146.65;81.15
57094;BME280;42970;50.996;3.706;2023-04-09T04:28:07;76110.13;;;-146.65;80.97
57094;BME280;42970;50.996;3.706;2023-04-09T04:30:33;76114.16;;;-146.65;81.00
57094;BME280;42970;50.996;3.706;2023-04-09T04:32:58;76118.19;;;-146.65;81.37
57094;BME280;42970;50.996;3.706;2023-04-09T04:35:23;76124.25;;;-146.65;80.99
57094;BME280;42970;50.996;3.706;2023-04-09T04:37:49;76134.31;;;-146.65;80.78
57094;BME280;42970;50.996;3.706;2023-04-09T04:40:15;76146.44;;;-146.65;80.72
57094;BME280;42970;50.996;3.706;2023-04-09T04:42:40;76154.50;;;-146.65;80.75
57094;BME280;42970;50.996;3.706;2023-04-09T04:45:06;76162.56;;;-146.65;80.66
57094;BME280;42970;50.996;3.706;2023-04-09T04:47:31;76154.50;;;-146.65;81.00
57094;BME280;42970;50.996;3.706;2023-04-09T04:49:56;76152.50;;;-146.65;81.80
57094;BME280;42970;50.996;3.706;2023-04-09T04:52:22;76130.28;;;-146.65;81.34
57094;BME280;42970;50.996;3.706;2023-04-09T04:54:47;76130.28;;;-146.65;80.69
57094;BME280;42970;50.996;3.706;2023-04-09T04:57:13;76132.31;;;-146.65;80.73
57094;BME280;42970;50.996;3.706;2023-04-09T04:59:39;76146.44;;;-146.65;80.36
57094;BME280;42970;50.996;3.706;2023-04-09T05:02:05;76168.63;;;-146.65;80.24
57094;BME280;42970;50.996;3.706;2023-04-09T05:04:30;76160.56;;;-146.65;80.44
57094;BME280;42970;50.996;3.706;2023-04-09T05:06:56;76150.47;;;-146.65;81.44
57094;BME280;42970;50.996;3.706;2023-04-09T05:09:21;76138.38;;;-146.65;82.09
57094;BME280;42970;50.996;3.706;2023-04-09T05:11:46;76124.25;;;-146.65;82.22
57094;BME280;42970;50.996;3.706;2023-04-09T05:14:11;76130.28;;;-146.65;81.68
57094;BME280;42970;50.996;3.706;2023-04-09T05:16:37;76116.19;;;-146.65;82.21
57094;BME280;42970;50.996;3.706;2023-04-09T05:19:02;76116.19;;;-146.65;82.59
57094;BME280;42970;50.996;3.706;2023-04-09T05:21:28;76112.13;;;-146.65;83.10
57094;BME280;42970;50.996;3.706;2023-04-09T05:23:53;76089.94;;;-146.65;83.02
57094;BME280;42970;50.996;3.706;2023-04-09T05:26:18;76093.97;;;-146.65;83.60
57094;BME280;42970;50.996;3.706;2023-04-09T05:28:43;76083.91;;;-146.65;84.04
57094;BME280;42970;50.996;3.706;2023-04-09T05:31:09;76059.69;;;-146.65;83.44
57094;BME280;42970;50.996;3.706;2023-04-09T05:33:37;76061.72;;;-146.65;83.86
57094;BME280;42970;50.996;3.706;2023-04-09T05:36:02;76055.66;;;-146.65;83.73
57094;BME280;42970;50.996;3.706;2023-04-09T05:38:28;76053.63;;;-146.65;84.62
57094;BME280;42970;50.996;3.706;2023-04-09T05:40:53;76027.41;;;-146.65;83.71
57094;BME280;42970;50.996;3.706;2023-04-09T05:43:18;76023.38;;;-146.65;82.72
57094;BME280;42970;50.996;3.706;2023-04-09T05:45:43;76029.44;;;-146.65;83.35
57094;BME280;42970;50.996;3.706;2023-04-09T05:48:09;76037.50;;;-146.65;84.45
57094;BME280;42970;50.996;3.706;2023-04-09T05:50:34;76023.38;;;-146.65;84.53
57094;BME280;42970;50.996;3.706;2023-04-09T05:53:00;76003.22;;;-146.65;84.06
57094;BME280;42970;50.996;3.706;2023-04-09T05:55:26;76003.22;;;-146.65;83.54
57094;BME280;42970;50.996;3.706;2023-04-09T05:57:51;76041.53;;;-146.65;83.56
57094;BME280;42970;50.996;3.706;2023-04-09T06:00:17;76035.47;;;-146.65;83.88
57094;BME280;42970;50.996;3.706;2023-04-09T06:02:43;76015.31;;;-146.65;83.76
57094;BME280;42970;50.996;3.706;2023-04-09T06:05:08;75999.16;;;-146.65;83.41
57094;BME280;42970;50.996;3.706;2023-04-09T06:07:34;75997.16;;;-146.65;83.68
57094;BME280;42970;50.996;3.706;2023-04-09T06:09:59;75997.16;;;-146.65;84.24
57094;BME280;42970;50.996;3.706;2023-04-09T06:12:24;75976.97;;;-146.65;84.37
57094;BME280;42970;50.996;3.706;2023-04-09T06:14:50;75968.91;;;-146.65;84.54
57094;BME280;42970;50.996;3.706;2023-04-09T06:17:15;75981.00;;;-146.65;84.92
57094;BME280;42970;50.996;3.706;2023-04-09T06:19:41;75983.03;;;-146.65;85.51
57094;BME280;42970;50.996;3.706;2023-04-09T06:22:09;75952.78;;;-146.65;85.68
57094;BME280;42970;50.996;3.706;2023-04-09T06:24:37;75938.66;;;-146.65;85.82
57094;BME280;42970;50.996;3.706;2023-04-09T06:27:03;75944.69;;;-146.65;86.00
57094;BME280;42970;50.996;3.706;2023-04-09T06:29:28;75930.59;;;-146.65;85.93
57094;BME280;42970;50.996;3.706;2023-04-09T06:31:53;75928.56;;;-146.65;85.54
57094;BME280;42970;50.996;3.706;2023-04-09T06:34:19;75920.50;;;-146.65;85.90
57094;BME280;42970;50.996;3.706;2023-04-09T06:36:44;75912.44;;;-146.65;85.48
57094;BME280;42970;50.996;3.706;2023-04-09T06:39:09;75884.19;;;-146.65;84.77
57094;BME280;42970;50.996;3.706;2023-04-09T06:41:35;75864.00;;;-146.65;84.49
57094;BME280;42970;50.996;3.706;2023-04-09T06:44:00;75841.81;;;-146.65;83.96
57094;BME280;42970;50.996;3.706;2023-04-09T06:46:26;75837.78;;;-146.65;84.53
57094;BME280;42970;50.996;3.706;2023-04-09T06:48:51;75823.66;;;-146.65;83.85
57094;BME280;42970;50.996;3.706;2023-04-09T06:51:17;75827.72;;;-146.65;83.88
57094;BME280;42970;50.996;3.706;2023-04-09T06:53:42;75839.81;;;-146.65;84.05
57094;BME280;42970;50.996;3.706;2023-04-09T06:56:07;75785.34;;;-146.65;83.50
57094;BME280;42970;50.996;3.706;2023-04-09T06:58:33;75791.41;;;-146.65;83.53
57094;BME280;42970;50.996;3.706;2023-04-09T07:00:58;75773.25;;;-146.65;83.14
57094;BME280;42970;50.996;3.706;2023-04-09T07:03:23;75773.25;;;-146.65;83.01
57094;BME280;42970;50.996;3.706;2023-04-09T07:05:48;75738.94;;;-146.65;82.19
57094;BME280;42970;50.996;3.706;2023-04-09T07:08:14;75738.94;;;-146.65;81.64
57094;BME280;42970;50.996;3.706;2023-04-09T07:10:39;75718.78;;;-146.65;81.59
57094;BME280;42970;50.996;3.706;2023-04-09T07:13:05;75702.63;;;-146.65;81.22
57094;BME280;42970;50.996;3.706;2023-04-09T07:15:30;75658.25;;;-146.65;80.29
57094;BME280;42970;50.996;3.706;2023-04-09T07:17:55;75670.38;;;-146.65;80.49
57094;BME280;42970;50.996;3.706;2023-04-09T07:20:21;75678.44;;;-146.65;80.14
57094;BME280;42970;50.996;3.706;2023-04-09T07:22:47;75634.06;;;-146.65;78.89
57094;BME280;42970;50.996;3.706;2023-04-09T07:25:12;75628.00;;;-146.65;78.12
57094;BME280;42970;50.996;3.706;2023-04-09T07:27:37;75632.03;;;-146.65;78.23
57094;BME280;42970;50.996;3.706;2023-04-09T07:30:03;75640.09;;;-146.65;78.17
57094;BME280;42970;50.996;3.706;2023-04-09T07:32:28;75597.75;;;-146.65;77.36
57094;BME280;42970;50.996;3.706;2023-04-09T07:34:53;75615.91;;;-146.65;76.93
57094;BME280;42970;50.996;3.706;2023-04-09T07:37:19;75601.78;;;-146.65;76.41
57094;BME280;42970;50.996;3.706;2023-04-09T07:39:45;75605.81;;;-146.65;76.55
57094;BME280;42970;50.996;3.706;2023-04-09T07:42:10;75601.78;;;-146.65;76.29
57094;BME280;42970;50.996;3.706;2023-04-09T07:44:36;75613.88;;;-146.65;76.40
57094;BME280;42970;50.996;3.706;2023-04-09T07:47:02;75581.63;;;-146.65;75.84
57094;BME280;42970;50.996;3.706;2023-04-09T07:49:28;75573.53;;;-146.65;75.29
57094;BME280;42970;50.996;3.706;2023-04-09T07:51:53;75541.28;;;-146.65;74.40
57094;BME280;42970;50.996;3.706;2023-04-09T07:54:18;75573.53;;;-146.65;74.66
57094;BME280;42970;50.996;3.706;2023-04-09T07:56:45;75589.69;;;-146.65;76.00
57094;BME280;42970;50.996;3.706;2023-04-09T07:59:11;75523.13;;;-146.65;74.78
57094;BME280;42970;50.996;3.706;2023-04-09T08:01:36;75496.91;;;-146.65;74.53
57094;BME280;42970;50.996;3.706;2023-04-09T08:04:01;75496.91;;;-146.65;73.78
57094;BME280;42970;50.996;3.706;2023-04-09T08:06:26;75500.94;;;-146.65;73.27
57094;BME280;42970;50.996;3.706;2023-04-09T08:08:52;75452.53;;;-146.65;72.99
57094;BME280;42970;50.996;3.706;2023-04-09T08:11:17;75406.13;;;-146.65;71.81
57094;BME280;42970;50.996;3.706;2023-04-09T08:13:49;75394.03;;;-146.65;70.64
57094;BME280;42970;50.996;3.706;2023-04-09T08:16:15;75363.78;;;-146.65;70.07
57094;BME280;42970;50.996;3.706;2023-04-09T08:18:40;75438.41;;;-146.65;70.13
57094;BME280;42970;50.996;3.706;2023-04-09T08:21:06;75394.03;;;-146.65;69.88
57094;BME280;42970;50.996;3.706;2023-04-09T08:23:31;75392.00;;;-146.65;68.24
57094;BME280;42970;50.996;3.706;2023-04-09T08:25:56;75343.59;;;-146.65;68.95
57094;BME280;42970;50.996;3.706;2023-04-09T08:28:22;75329.50;;;-146.65;66.97
57094;BME280;42970;50.996;3.706;2023-04-09T08:30:47;75355.72;;;-146.65;66.77
57094;BME280;42970;50.996;3.706;2023-04-09T08:33:13;75321.41;;;-146.65;66.08
57094;BME280;42970;50.996;3.706;2023-04-09T08:35:38;75337.56;;;-146.65;65.30
57094;BME280;42970;50.996;3.706;2023-04-09T08:38:05;75258.91;;;-146.65;64.17
57094;BME280;42970;50.996;3.706;2023-04-09T08:40:34;75299.25;;;-146.65;63.41
57094;BME280;42970;50.996;3.706;2023-04-09T08:42:59;75291.16;;;-146.65;63.30
57094;BME280;42970;50.996;3.706;2023-04-09T08:45:28;75230.66;;;-146.65;62.82
57094;BME280;42970;50.996;3.706;2023-04-09T08:47:53;75234.69;;;-146.65;62.01
57094;BME280;42970;50.996;3.706;2023-04-09T08:50:18;75184.28;;;-146.65;61.08
57094;BME280;42970;50.996;3.706;2023-04-09T08:52:44;75182.25;;;-146.65;60.33
57094;BME280;42970;50.996;3.706;2023-04-09T08:55:10;75186.28;;;-146.65;58.93
57094;BME280;42970;50.996;3.706;2023-04-09T08:57:43;75141.91;;;-146.65;59.13
57094;BME280;42970;50.996;3.706;2023-04-09T09:00:08;75172.16;;;-146.65;58.82
57094;BME280;42970;50.996;3.706;2023-04-09T09:02:34;75117.72;;;-146.65;57.36
57094;BME280;42970;50.996;3.706;2023-04-09T09:04:59;75113.69;;;-146.65;56.69
57094;BME280;42970;50.996;3.706;2023-04-09T09:07:28;75133.84;;;-146.65;58.18
57094;BME280;42970;50.996;3.706;2023-04-09T09:09:54;75129.81;;;-146.65;56.72
57094;BME280;42970;50.996;3.706;2023-04-09T09:12:33;75089.47;;;-146.65;55.81
57094;BME280;42970;50.996;3.706;2023-04-09T09:14:58;75095.53;;;-146.65;54.35
57094;BME280;42970;50.996;3.706;2023-04-09T09:17:24;75047.13;;;-146.65;55.15
57094;BME280;42970;50.996;3.706;2023-04-09T09:19:49;75077.38;;;-146.65;54.58
57094;BME280;42970;50.996;3.706;2023-04-09T09:22:15;75129.81;;;-146.65;55.83
57094;BME280;42970;50.996;3.706;2023-04-09T09:24:47;75026.97;;;-146.65;54.24
57094;BME280;42970;50.996;3.706;2023-04-09T09:27:29;75063.25;;;-146.65;54.51
57094;BME280;42970;50.996;3.706;2023-04-09T09:29:55;75008.81;;;-146.65;53.49
57094;BME280;42970;50.996;3.706;2023-04-09T09:32:21;75008.81;;;-146.65;51.73
57094;BME280;42970;50.996;3.706;2023-04-09T09:34:56;75069.31;;;-146.65;52.37
57094;BME280;42970;50.996;3.706;2023-04-09T09:37:25;75069.31;;;-146.65;52.10
57094;BME280;42970;50.996;3.706;2023-04-09T09:39:52;74972.50;;;-146.65;50.07
57094;BME280;42970;50.996;3.706;2023-04-09T09:42:17;75002.75;;;-146.65;49.08
57094;BME280;42970;50.996;3.706;2023-04-09T09:44:42;74950.31;;;-146.65;50.48
57094;BME280;42970;50.996;3.706;2023-04-09T09:47:07;74948.31;;;-146.65;50.00
57094;BME280;42970;50.996;3.706;2023-04-09T09:49:33;74924.09;;;-146.65;49.32
57094;BME280;42970;50.996;3.706;2023-04-09T09:51:59;74827.31;;;-146.65;47.88
57094;BME280;42970;50.996;3.706;2023-04-09T09:54:26;74805.13;;;-146.65;46.62
57094;BME280;42970;50.996;3.706;2023-04-09T09:56:55;74897.88;;;-146.65;48.99
57094;BME280;42970;50.996;3.706;2023-04-09T09:59:22;74863.59;;;-146.65;47.54
57094;BME280;42970;50.996;3.706;2023-04-09T10:01:55;74843.44;;;-146.65;46.95
57094;BME280;42970;50.996;3.706;2023-04-09T10:04:23;74827.31;;;-146.65;47.29
57094;BME280;42970;50.996;3.706;2023-04-09T10:06:52;74873.69;;;-146.65;48.77
57094;BME280;42970;50.996;3.706;2023-04-09T10:09:17;74774.88;;;-146.65;46.72
57094;BME280;42970;50.996;3.706;2023-04-09T10:11:45;74780.91;;;-146.65;45.95
57094;BME280;42970;50.996;3.706;2023-04-09T10:14:12;74680.09;;;-146.65;43.53
57094;BME280;42970;50.996;3.706;2023-04-09T10:16:38;74635.72;;;-146.65;44.25
57094;BME280;42970;50.996;3.706;2023-04-09T10:19:03;74647.81;;;-146.65;43.62
57094;BME280;42970;50.996;3.706;2023-04-09T10:21:34;74633.72;;;-146.65;43.12
57094;BME280;42970;50.996;3.706;2023-04-09T10:24:00;74657.91;;;-146.65;43.46
57094;BME280;42970;50.996;3.706;2023-04-09T10:26:31;74544.97;;;-146.65;42.28
57094;BME280;42970;50.996;3.706;2023-04-09T10:29:03;74470.38;;;-146.65;40.87
57094;BME280;42970;50.996;3.706;2023-04-09T10:31:44;74393.75;;;-146.65;39.84
57094;BME280;42970;50.996;3.706;2023-04-09T10:34:09;74323.16;;;-146.65;39.74
57094;BME280;42970;50.996;3.706;2023-04-09T10:36:34;74327.19;;;-146.65;38.88
57094;BME280;42970;50.996;3.706;2023-04-09T10:39:00;74315.09;;;-146.65;40.81
57094;BME280;42970;50.996;3.706;2023-04-09T10:41:35;74339.28;;;-146.65;38.27
57094;BME280;42970;50.996;3.706;2023-04-09T10:44:04;74280.81;;;-146.65;38.10
57094;BME280;42970;50.996;3.706;2023-04-09T10:46:33;74270.75;;;-146.65;38.21
57094;BME280;42970;50.996;3.706;2023-04-09T10:51:35;74266.69;;;-146.65;38.31
57094;BME280;42970;50.996;3.706;2023-04-09T10:54:02;74173.94;;;-146.65;37.49
57094;BME280;42970;50.996;3.706;2023-04-09T10:56:28;74182.00;;;-146.65;37.65
57094;BME280;42970;50.996;3.706;2023-04-09T10:58:53;74210.25;;;-146.65;37.76
57094;BME280;42970;50.996;3.706;2023-04-09T11:01:21;74323.16;;;-146.65;37.40
57094;BME280;42970;50.996;3.706;2023-04-09T11:04:03;74177.97;;;-146.65;36.89
57094;BME280;42970;50.996;3.706;2023-04-09T11:06:30;74175.97;;;-146.65;36.21
57094;BME280;42970;50.996;3.706;2023-04-09T11:08:59;74085.22;;;-146.65;35.97
57094;BME280;42970;50.996;3.706;2023-04-09T11:11:25;74036.84;;;-146.65;35.71
57094;BME280;42970;50.996;3.706;2023-04-09T11:13:50;74137.66;;;-146.65;35.52
57094;BME280;42970;50.996;3.706;2023-04-09T11:16:16;74101.38;;;-146.65;35.17
57094;BME280;42970;50.996;3.706;2023-04-09T11:18:42;74050.97;;;-146.65;36.15
57094;BME280;42970;50.996;3.706;2023-04-09T11:21:07;74151.78;;;-146.65;36.18
57094;BME280;42970;50.996;3.706;2023-04-09T11:23:34;74121.53;;;-146.65;35.93
57094;BME280;42970;50.996;3.706;2023-04-09T11:25:59;74012.66;;;-146.65;35.61
57094;BME280;42970;50.996;3.706;2023-04-09T11:28:26;74226.38;;;-146.65;35.45
57094;BME280;42970;50.996;3.706;2023-04-09T11:30:51;74155.81;;;-146.65;35.69
57094;BME280;42970;50.996;3.706;2023-04-09T11:33:16;74085.22;;;-146.65;35.14
57094;BME280;42970;50.996;3.706;2023-04-09T11:35:42;73992.47;;;-146.65;34.55
57094;BME280;42970;50.996;3.706;2023-04-09T11:38:08;74073.13;;;-146.65;34.78
57094;BME280;42970;50.996;3.706;2023-04-09T11:40:33;73960.22;;;-146.65;34.17
57094;BME280;42970;50.996;3.706;2023-04-09T11:42:59;73843.28;;;-146.65;33.21
57094;BME280;42970;50.996;3.706;2023-04-09T11:45:26;73859.41;;;-146.65;32.52
57094;BME280;42970;50.996;3.706;2023-04-09T11:47:51;73925.94;;;-146.65;33.61
57094;BME280;42970;50.996;3.706;2023-04-09T11:50:17;73833.19;;;-146.65;32.78
57094;BME280;42970;50.996;3.706;2023-04-09T11:52:45;73891.66;;;-146.65;33.71
57094;BME280;42970;50.996;3.706;2023-04-09T11:55:11;73877.56;;;-146.65;33.02
57094;BME280;42970;50.996;3.706;2023-04-09T11:57:43;73960.22;;;-146.65;32.62
57094;BME280;42970;50.996;3.706;2023-04-09T12:00:09;73792.88;;;-146.65;32.24
57094;BME280;42970;50.996;3.706;2023-04-09T12:02:37;73891.66;;;-146.65;32.17
57094;BME280;42970;50.996;3.706;2023-04-09T12:05:02;73732.41;;;-146.65;31.23
57094;BME280;42970;50.996;3.706;2023-04-09T12:07:34;73849.34;;;-146.65;31.51
57094;BME280;42970;50.996;3.706;2023-04-09T12:10:03;73893.69;;;-146.65;32.21
57094;BME280;42970;50.996;3.706;2023-04-09T12:12:29;73909.81;;;-146.65;32.94
57094;BME280;42970;50.996;3.706;2023-04-09T12:14:54;73863.44;;;-146.65;32.41
57094;BME280;42970;50.996;3.706;2023-04-09T12:17:22;73855.38;;;-146.65;31.24
57094;BME280;42970;50.996;3.706;2023-04-09T12:19:48;73811.03;;;-146.65;30.95
57094;BME280;42970;50.996;3.706;2023-04-09T12:22:13;73833.19;;;-146.65;30.88
57094;BME280;42970;50.996;3.706;2023-04-09T12:24:38;73843.28;;;-146.65;31.14
57094;BME280;42970;50.996;3.706;2023-04-09T12:27:03;73879.56;;;-146.65;31.33
57094;BME280;42970;50.996;3.706;2023-04-09T12:29:29;73740.47;;;-146.65;30.88
57094;BME280;42970;50.996;3.706;2023-04-09T12:31:54;73786.84;;;-146.65;30.01
57094;BME280;42970;50.996;3.706;2023-04-09T12:34:20;73940.06;;;-146.65;31.96
57094;BME280;42970;50.996;3.706;2023-04-09T12:36:45;74117.50;;;-146.65;32.49
57094;BME280;42970;50.996;3.706;2023-04-09T12:39:11;74085.22;;;-146.65;33.33
57094;BME280;42970;50.996;3.706;2023-04-09T12:41:36;73909.81;;;-146.65;31.21
57094;BME280;42970;50.996;3.706;2023-04-09T12:44:01;73891.66;;;-146.65;31.52
57094;BME280;42970;50.996;3.706;2023-04-09T12:46:27;73849.34;;;-146.65;30.94